Time;durP1;ratioP1;P1;durP2;ratioP2;P2;SDS_P1;SDS_P2;PMS_P1;PMS_P2;Temp;Humidity;BMP_temperature;BMP_pressure;BME280_temperature;BME280_humidity;BME280_pressure;Samples;Min_cycle;Max_cycle;Signal;HPM_P1;HPM_P2
2021/12/25 00:01:39;;;;;;;;;;;18.50;44.90;;;;;;5114569;27;43085;-80
2021/12/25 00:04:07;;;;;;;;;;;18.50;45.40;;;;;;5114777;27;43058;-79
2021/12/25 00:06:32;;;;;;;;;;;18.50;44.90;;;;;;5112719;27;43180;-79
2021/12/25 00:08:58;;;;;;;;;;;18.40;44.90;;;;;;5113881;27;43697;-79
2021/12/25 00:11:23;;;;;;;;;;;18.50;44.90;;;;;;5112864;27;42877;-79
2021/12/25 00:13:49;;;;;;;;;;;18.40;44.90;;;;;;5113055;27;45050;-79
2021/12/25 00:16:15;;;;;;;;;;;18.50;44.90;;;;;;5115946;27;43002;-79
2021/12/25 00:18:40;;;;;;;;;;;18.50;44.90;;;;;;5115748;27;43127;-74
2021/12/25 00:21:07;;;;;;;;;;;18.50;44.90;;;;;;5112692;27;42975;-79
2021/12/25 00:23:32;;;;;;;;;;;18.50;44.90;;;;;;5113684;27;43661;-79
2021/12/25 00:26:10;;;;;;;;;;;18.50;44.90;;;;;;5112742;27;43085;-74
2021/12/25 00:36:16;;;;;;;;;;;18.50;44.80;;;;;;5115864;27;42926;-80
2021/12/25 00:38:42;;;;;;;;;;;18.50;44.80;;;;;;5114795;27;43525;-79
2021/12/25 00:41:08;;;;;;;;;;;18.50;44.80;;;;;;5113989;27;42979;-79
2021/12/25 00:43:34;;;;;;;;;;;18.50;44.90;;;;;;5119328;27;43664;-79
2021/12/25 00:46:00;;;;;;;;;;;18.50;44.90;;;;;;5125875;27;43082;-76
2021/12/25 00:48:26;;;;;;;;;;;18.50;44.90;;;;;;5125168;27;42935;-79
2021/12/25 00:50:52;;;;;;;;;;;18.50;44.90;;;;;;5125501;27;43041;-78
2021/12/25 00:53:17;;;;;;;;;;;18.50;44.90;;;;;;5126096;27;42946;-78
2021/12/25 00:55:43;;;;;;;;;;;18.40;44.90;;;;;;5126319;27;42968;-80
2021/12/25 00:58:08;;;;;;;;;;;18.50;44.90;;;;;;5125989;27;43196;-80
2021/12/25 01:00:34;;;;;;;;;;;18.40;44.90;;;;;;5126322;27;42868;-79
2021/12/25 01:02:59;;;;;;;;;;;18.40;44.90;;;;;;5126103;27;42957;-79
2021/12/25 01:05:25;;;;;;;;;;;18.40;44.90;;;;;;5125782;27;42966;-79
2021/12/25 01:07:51;;;;;;;;;;;18.40;44.90;;;;;;5126226;27;43444;-80
2021/12/25 01:10:19;;;;;;;;;;;18.40;44.90;;;;;;5126274;27;42916;-80
2021/12/25 01:20:59;;;;;;;;;;;18.40;45.00;;;;;;5128713;27;42971;-79
2021/12/25 01:49:30;;;;;;;;;;;18.30;45.10;;;;;;5128363;27;43277;-79
2021/12/25 01:51:56;;;;;;;;;;;18.30;45.10;;;;;;5128569;27;42931;-79
2021/12/25 01:54:21;;;;;;;;;;;18.30;45.10;;;;;;5128899;27;43013;-80
2021/12/25 01:56:48;;;;;;;;;;;18.30;45.60;;;;;;5129595;27;42953;-78
2021/12/25 01:59:14;;;;;;;;;;;18.30;45.00;;;;;;5133401;27;42753;-79
2021/12/25 02:01:39;;;;;;;;;;;18.30;45.00;;;;;;5139489;27;42785;-79
2021/12/25 02:04:05;;;;;;;;;;;18.30;45.00;;;;;;5136612;27;42919;-80
2021/12/25 02:06:31;;;;;;;;;;;18.30;45.00;;;;;;5128154;27;42968;-79
2021/12/25 02:08:56;;;;;;;;;;;18.30;45.00;;;;;;5128365;27;42998;-79
2021/12/25 02:11:24;;;;;;;;;;;18.30;45.00;;;;;;5128656;27;42876;-80
2021/12/25 02:13:49;;;;;;;;;;;18.30;45.00;;;;;;5128551;27;43063;-79
2021/12/25 02:16:18;;;;;;;;;;;18.30;45.00;;;;;;5128128;27;43051;-79
2021/12/25 02:19:04;;;;;;;;;;;18.30;45.00;;;;;;5121277;27;42980;-79
2021/12/25 02:21:40;;;;;;;;;;;18.30;45.00;;;;;;5112774;27;42955;-80
2021/12/25 02:24:06;;;;;;;;;;;18.20;44.90;;;;;;5107716;27;43486;-79
2021/12/25 02:26:32;;;;;;;;;;;18.30;45.00;;;;;;5108291;27;42923;-81
2021/12/25 02:28:58;;;;;;;;;;;18.30;45.00;;;;;;5107348;27;43143;-79
2021/12/25 02:31:23;;;;;;;;;;;18.20;45.00;;;;;;5113983;27;43488;-78
2021/12/25 02:33:49;;;;;;;;;;;18.20;45.00;;;;;;5128184;27;42911;-79
2021/12/25 02:36:15;;;;;;;;;;;18.20;45.00;;;;;;5117390;27;43088;-79
2021/12/25 02:38:42;;;;;;;;;;;18.20;45.00;;;;;;5107442;27;42956;-79
2021/12/25 02:41:07;;;;;;;;;;;18.20;45.00;;;;;;5107922;27;43107;-80
2021/12/25 02:43:33;;;;;;;;;;;18.20;45.00;;;;;;5108131;27;42904;-79
2021/12/25 02:46:03;;;;;;;;;;;18.20;45.00;;;;;;5107361;27;43084;-79
2021/12/25 02:48:29;;;;;;;;;;;18.20;45.00;;;;;;5107784;27;43485;-79
2021/12/25 02:50:55;;;;;;;;;;;18.20;45.00;;;;;;5107616;27;42940;-79
2021/12/25 02:53:21;;;;;;;;;;;18.20;45.00;;;;;;5107515;27;42955;-79
2021/12/25 02:55:46;;;;;;;;;;;18.20;45.00;;;;;;5107761;27;42936;-79
2021/12/25 02:58:12;;;;;;;;;;;18.20;45.00;;;;;;5121054;27;43146;-80
2021/12/25 03:00:43;;;;;;;;;;;18.20;45.00;;;;;;5128423;27;43209;-80
2021/12/25 03:03:08;;;;;;;;;;;18.20;45.00;;;;;;5128389;27;44179;-79
2021/12/25 03:05:37;;;;;;;;;;;18.10;44.90;;;;;;5128288;27;42990;-80
2021/12/25 03:08:07;;;;;;;;;;;18.20;45.00;;;;;;5127637;27;42924;-80
2021/12/25 03:10:34;;;;;;;;;;;18.20;45.00;;;;;;5128114;27;42977;-80
2021/12/25 03:15:46;;;;;;;;;;;18.20;45.00;;;;;;5127364;27;42912;-80
2021/12/25 03:18:12;;;;;;;;;;;18.10;44.90;;;;;;5127317;27;43602;-80
2021/12/25 03:20:40;;;;;;;;;;;18.10;44.90;;;;;;5127659;27;43052;-80
2021/12/25 03:23:06;;;;;;;;;;;18.10;45.00;;;;;;5127786;27;43521;-80
2021/12/25 03:25:31;;;;;;;;;;;18.10;45.00;;;;;;5128153;27;42947;-80
2021/12/25 03:27:57;;;;;;;;;;;18.10;45.00;;;;;;5127508;27;43191;-80
2021/12/25 03:30:24;;;;;;;;;;;18.10;45.00;;;;;;5121368;27;42986;-80
2021/12/25 03:32:50;;;;;;;;;;;18.10;45.00;;;;;;5106013;27;43489;-80
2021/12/25 03:35:16;;;;;;;;;;;18.10;45.00;;;;;;5107035;27;42829;-79
2021/12/25 03:37:42;;;;;;;;;;;18.10;45.00;;;;;;5107231;27;43505;-78
2021/12/25 03:40:07;;;;;;;;;;;18.10;45.00;;;;;;5106754;27;43023;-79
2021/12/25 03:42:33;;;;;;;;;;;18.10;45.00;;;;;;5106433;27;43003;-79
2021/12/25 03:44:59;;;;;;;;;;;18.10;45.00;;;;;;5106782;27;42841;-78
2021/12/25 03:47:29;;;;;;;;;;;18.10;45.00;;;;;;5106866;27;43936;-80
2021/12/25 03:58:13;;;;;;;;;;;18.00;45.00;;;;;;5106884;27;42928;-80
2021/12/25 04:00:41;;;;;;;;;;;18.00;45.00;;;;;;5106773;27;42873;-79
2021/12/25 04:03:10;;;;;;;;;;;18.00;45.00;;;;;;5117113;27;43018;-78
2021/12/25 04:05:37;;;;;;;;;;;18.00;45.00;;;;;;5107082;27;42921;-75
2021/12/25 04:08:06;;;;;;;;;;;18.00;45.00;;;;;;5106987;27;44588;-74
2021/12/25 04:10:35;;;;;;;;;;;18.00;45.00;;;;;;5114039;27;42897;-79
2021/12/25 04:13:01;;;;;;;;;;;18.00;45.10;;;;;;5117906;27;43674;-80
2021/12/25 04:15:26;;;;;;;;;;;18.00;45.10;;;;;;5119282;27;43047;-77
2021/12/25 04:17:52;;;;;;;;;;;18.00;45.10;;;;;;5111980;27;43718;-78
2021/12/25 04:20:18;;;;;;;;;;;18.00;45.10;;;;;;5116678;27;43005;-77
2021/12/25 04:22:53;;;;;;;;;;;18.00;45.10;;;;;;5122676;27;43513;-78
2021/12/25 04:25:23;;;;;;;;;;;18.00;45.10;;;;;;5114563;27;42897;-81
2021/12/25 04:27:49;;;;;;;;;;;18.00;45.10;;;;;;5123383;27;43251;-82
2021/12/25 04:50:00;;;;;;;;;;;17.90;45.10;;;;;;5104838;27;43141;-80
2021/12/25 05:05:48;;;;;;;;;;;17.90;45.10;;;;;;5104535;27;43506;-83
2021/12/25 05:08:13;;;;;;;;;;;17.90;45.20;;;;;;5105621;27;43032;-84
2021/12/25 05:10:39;;;;;;;;;;;17.90;45.20;;;;;;5105399;27;43663;-84
2021/12/25 05:13:04;;;;;;;;;;;17.90;45.20;;;;;;5105237;27;43014;-86
2021/12/25 05:15:30;;;;;;;;;;;17.90;45.20;;;;;;5105819;27;43517;-85
2021/12/25 05:17:56;;;;;;;;;;;17.90;45.20;;;;;;5105238;27;42990;-86
2021/12/25 05:20:22;;;;;;;;;;;17.90;45.20;;;;;;5105548;27;42885;-86
2021/12/25 05:22:48;;;;;;;;;;;17.90;45.70;;;;;;5105895;27;42873;-85
2021/12/25 05:25:15;;;;;;;;;;;17.90;45.20;;;;;;5105288;27;43530;-85
2021/12/25 05:27:41;;;;;;;;;;;17.80;45.10;;;;;;5105344;27;42984;-85
2021/12/25 05:30:07;;;;;;;;;;;17.90;45.20;;;;;;5105895;27;42921;-84
2021/12/25 05:32:32;;;;;;;;;;;17.80;45.20;;;;;;5106454;27;43029;-84
2021/12/25 05:34:58;;;;;;;;;;;17.80;45.10;;;;;;5118392;27;43742;-76
2021/12/25 05:37:23;;;;;;;;;;;17.80;45.20;;;;;;5128113;27;42276;-81
2021/12/25 05:39:52;;;;;;;;;;;17.80;45.20;;;;;;5117739;27;42805;-84
2021/12/25 05:42:20;;;;;;;;;;;17.80;45.20;;;;;;5107145;27;42894;-82
2021/12/25 05:44:46;;;;;;;;;;;17.80;45.20;;;;;;5105390;27;42837;-81
2021/12/25 05:47:11;;;;;;;;;;;17.80;45.20;;;;;;5105111;27;42931;-85
2021/12/25 05:49:37;;;;;;;;;;;17.80;45.20;;;;;;5104875;27;43419;-84
2021/12/25 05:52:03;;;;;;;;;;;17.80;45.20;;;;;;5104793;27;43023;-84
2021/12/25 05:54:28;;;;;;;;;;;17.80;45.20;;;;;;5105068;27;44033;-85
2021/12/25 05:56:54;;;;;;;;;;;17.80;45.20;;;;;;5105259;27;42920;-85
2021/12/25 05:59:19;;;;;;;;;;;17.80;45.20;;;;;;5104678;27;43405;-85
2021/12/25 06:01:45;;;;;;;;;;;17.80;45.20;;;;;;5103972;27;42956;-85
2021/12/25 06:04:10;;;;;;;;;;;17.80;45.20;;;;;;5106087;27;43449;-85
2021/12/25 06:06:36;;;;;;;;;;;17.80;45.30;;;;;;5118016;27;43046;-78
2021/12/25 06:09:03;;;;;;;;;;;17.80;45.20;;;;;;5116056;27;43328;-76
2021/12/25 06:11:31;;;;;;;;;;;17.80;45.20;;;;;;5115084;27;43030;-83
2021/12/25 06:14:06;;;;;;;;;;;17.70;45.20;;;;;;5117629;27;43517;-83
2021/12/25 06:16:31;;;;;;;;;;;17.80;45.30;;;;;;5116971;27;42974;-83
2021/12/25 06:18:57;;;;;;;;;;;17.80;45.30;;;;;;5116244;27;43236;-81
2021/12/25 06:21:22;;;;;;;;;;;17.80;45.30;;;;;;5116663;27;42949;-83
2021/12/25 06:23:48;;;;;;;;;;;17.80;45.40;;;;;;5116933;27;42933;-84
2021/12/25 06:26:13;;;;;;;;;;;17.70;45.30;;;;;;5115138;27;43009;-87
2021/12/25 06:28:39;;;;;;;;;;;17.70;45.30;;;;;;5115589;27;42873;-87
2021/12/25 06:31:04;;;;;;;;;;;17.80;45.30;;;;;;5116122;27;43038;-85
2021/12/25 06:33:30;;;;;;;;;;;17.80;45.30;;;;;;5116252;27;43015;-87
2021/12/25 06:35:56;;;;;;;;;;;17.80;45.30;;;;;;5115049;27;43017;-86
2021/12/25 06:38:21;;;;;;;;;;;17.70;45.20;;;;;;5115000;27;43034;-84
2021/12/25 06:40:47;;;;;;;;;;;17.70;45.30;;;;;;5117278;27;43152;-85
2021/12/25 06:43:12;;;;;;;;;;;17.70;45.20;;;;;;5117251;27;43678;-84
2021/12/25 06:45:38;;;;;;;;;;;17.70;45.20;;;;;;5118199;27;42949;-84
2021/12/25 06:48:03;;;;;;;;;;;17.80;45.20;;;;;;5112767;27;43552;-83
2021/12/25 06:50:29;;;;;;;;;;;17.70;45.20;;;;;;5116971;27;43070;-83
2021/12/25 06:52:55;;;;;;;;;;;17.70;45.10;;;;;;5112556;27;43401;-85
2021/12/25 06:55:21;;;;;;;;;;;17.70;45.10;;;;;;5114401;27;43713;-84
2021/12/25 06:57:54;;;;;;;;;;;17.70;45.10;;;;;;5113256;27;43068;-84
2021/12/25 07:00:21;;;;;;;;;;;17.70;45.10;;;;;;5115826;27;43117;-81
2021/12/25 07:02:46;;;;;;;;;;;17.70;45.10;;;;;;5109937;27;44216;-82
2021/12/25 07:05:12;;;;;;;;;;;17.70;45.00;;;;;;5116846;27;42983;-83
2021/12/25 07:07:37;;;;;;;;;;;17.70;45.00;;;;;;5116865;27;43244;-83
2021/12/25 07:10:03;;;;;;;;;;;17.70;45.50;;;;;;5117454;27;43108;-83
2021/12/25 07:12:32;;;;;;;;;;;17.70;45.00;;;;;;5114648;27;43805;-83
2021/12/25 07:14:57;;;;;;;;;;;17.70;44.90;;;;;;5115166;27;43495;-83
2021/12/25 07:17:23;;;;;;;;;;;17.70;45.00;;;;;;5118282;27;43464;-82
2021/12/25 07:19:48;;;;;;;;;;;17.60;44.90;;;;;;5116457;27;42830;-84
2021/12/25 07:22:14;;;;;;;;;;;17.70;44.90;;;;;;5127640;27;42858;-83
2021/12/25 07:24:39;;;;;;;;;;;17.60;44.90;;;;;;5127556;27;42948;-83
2021/12/25 07:27:05;;;;;;;;;;;17.60;44.90;;;;;;5120699;27;43139;-83
2021/12/25 07:29:31;;;;;;;;;;;17.60;44.90;;;;;;5121196;27;43144;-82
2021/12/25 07:31:57;;;;;;;;;;;17.60;44.80;;;;;;5118582;27;42804;-85
2021/12/25 07:34:22;;;;;;;;;;;17.60;44.70;;;;;;5112946;27;42957;-85
2021/12/25 07:36:48;;;;;;;;;;;17.60;44.70;;;;;;5118061;27;43749;-84
2021/12/25 07:39:13;;;;;;;;;;;17.60;44.80;;;;;;5120567;27;43229;-85
2021/12/25 07:41:39;;;;;;;;;;;17.60;44.70;;;;;;5113203;27;43669;-84
2021/12/25 07:44:04;;;;;;;;;;;17.60;44.70;;;;;;5110817;27;43386;-87
2021/12/25 07:46:30;;;;;;;;;;;17.60;44.70;;;;;;5106237;27;43662;-76
2021/12/25 07:48:55;;;;;;;;;;;17.60;44.70;;;;;;5117903;27;42970;-89
2021/12/25 07:51:21;;;;;;;;;;;17.60;44.70;;;;;;5106759;27;44236;-81
2021/12/25 07:53:46;;;;;;;;;;;17.60;44.60;;;;;;5114573;27;43050;-81
2021/12/25 07:56:12;;;;;;;;;;;17.60;44.60;;;;;;5113576;27;44398;-83
2021/12/25 07:58:40;;;;;;;;;;;17.60;44.50;;;;;;5111879;27;43623;-82
2021/12/25 08:01:05;;;;;;;;;;;17.60;44.70;;;;;;5106806;27;43398;-81
2021/12/25 08:03:31;;;;;;;;;;;17.60;44.70;;;;;;5109774;27;44982;-77
2021/12/25 08:05:57;;;;;;;;;;;17.60;45.30;;;;;;5110607;27;43383;-81
2021/12/25 08:08:22;;;;;;;;;;;17.60;44.80;;;;;;5116237;27;43003;-80
2021/12/25 08:10:48;;;;;;;;;;;17.60;44.80;;;;;;5118012;27;43557;-80
2021/12/25 08:13:16;;;;;;;;;;;17.60;44.80;;;;;;5119053;27;58416;-80
2021/12/25 08:15:42;;;;;;;;;;;17.50;44.80;;;;;;5116653;27;42865;-78
2021/12/25 08:18:08;;;;;;;;;;;17.50;44.80;;;;;;5118512;27;42948;-81
2021/12/25 08:20:34;;;;;;;;;;;17.50;44.80;;;;;;5118292;27;42968;-80
2021/12/25 08:23:01;;;;;;;;;;;17.50;44.80;;;;;;5109715;27;42979;-79
2021/12/25 08:25:26;;;;;;;;;;;17.50;44.80;;;;;;5105368;27;43859;-81
2021/12/25 08:27:52;;;;;;;;;;;17.60;44.80;;;;;;5109754;27;42899;-78
2021/12/25 08:30:19;;;;;;;;;;;17.20;42.30;;;;;;5113201;27;44942;-79
2021/12/25 08:32:45;;;;;;;;;;;16.30;41.90;;;;;;5113893;27;43087;-78
2021/12/25 08:35:11;;;;;;;;;;;15.60;42.10;;;;;;5122971;27;43033;-81
2021/12/25 08:37:37;;;;;;;;;;;15.20;42.60;;;;;;5126405;27;43058;-78
2021/12/25 08:40:03;;;;;;;;;;;14.90;42.70;;;;;;5126134;27;42983;-77
2021/12/25 08:42:29;;;;;;;;;;;14.70;43.10;;;;;;5106809;27;43093;-78
2021/12/25 08:47:23;;;;;;;;;;;14.40;43.60;;;;;;5105457;27;42886;-79
2021/12/25 08:49:49;;;;;;;;;;;14.20;43.80;;;;;;5105085;27;42964;-77
2021/12/25 08:52:15;;;;;;;;;;;14.20;44.00;;;;;;5105201;27;43023;-77
2021/12/25 08:54:42;;;;;;;;;;;14.10;44.00;;;;;;5111606;27;43553;-76
2021/12/25 08:57:09;;;;;;;;;;;14.20;44.20;;;;;;5105001;27;42956;-77
2021/12/25 08:59:36;;;;;;;;;;;14.00;44.20;;;;;;5107116;27;43189;-75
2021/12/25 09:02:07;;;;;;;;;;;14.10;44.50;;;;;;5124391;27;43056;-80
2021/12/25 09:04:32;;;;;;;;;;;14.20;44.30;;;;;;5118838;27;45453;-79
2021/12/25 09:06:58;;;;;;;;;;;14.20;44.00;;;;;;5105201;27;42974;-75
2021/12/25 09:09:24;;;;;;;;;;;14.00;44.10;;;;;;5105472;27;42936;-75
2021/12/25 09:11:49;;;;;;;;;;;14.10;44.40;;;;;;5114351;27;43051;-78
2021/12/25 09:14:15;;;;;;;;;;;13.90;44.60;;;;;;5125279;27;43279;-77
2021/12/25 09:16:40;;;;;;;;;;;13.80;44.50;;;;;;5129749;27;43059;-75
2021/12/25 09:19:06;;;;;;;;;;;13.80;44.60;;;;;;5121022;27;43539;-75
2021/12/25 09:21:32;;;;;;;;;;;13.80;44.90;;;;;;5121157;27;42920;-78
2021/12/25 09:23:57;;;;;;;;;;;13.90;44.80;;;;;;5118331;27;43021;-74
2021/12/25 09:26:23;;;;;;;;;;;13.80;44.70;;;;;;5104943;27;43010;-79
2021/12/25 09:28:48;;;;;;;;;;;13.60;45.00;;;;;;5114542;27;43986;-77
2021/12/25 09:31:14;;;;;;;;;;;13.60;45.20;;;;;;5120341;27;43177;-77
2021/12/25 09:33:40;;;;;;;;;;;13.60;45.40;;;;;;5104974;27;43003;-79
2021/12/25 09:36:06;;;;;;;;;;;13.60;45.30;;;;;;5121119;27;42905;-75
2021/12/25 09:38:32;;;;;;;;;;;13.60;45.30;;;;;;5125962;27;43770;-80
2021/12/25 09:40:59;;;;;;;;;;;13.40;45.50;;;;;;5128161;27;42939;-81
2021/12/25 09:43:25;;;;;;;;;;;13.40;45.70;;;;;;5126251;27;43209;-76
2021/12/25 09:45:51;;;;;;;;;;;13.70;45.80;;;;;;5113523;27;42919;-79
2021/12/25 09:48:17;;;;;;;;;;;14.20;45.90;;;;;;5111966;27;42962;-74
2021/12/25 09:50:43;;;;;;;;;;;14.60;46.30;;;;;;5128693;27;43022;-71
2021/12/25 09:53:10;;;;;;;;;;;15.10;52.80;;;;;;5128301;27;42851;-73
2021/12/25 09:55:38;;;;;;;;;;;15.20;46.10;;;;;;5126105;27;42932;-74
2021/12/25 09:58:03;;;;;;;;;;;15.40;46.10;;;;;;5108050;27;43574;-75
2021/12/25 10:00:29;;;;;;;;;;;15.50;46.10;;;;;;5107241;27;42830;-75
2021/12/25 10:02:56;;;;;;;;;;;15.60;46.10;;;;;;5107406;27;43046;-74
2021/12/25 10:05:29;;;;;;;;;;;15.80;46.10;;;;;;5107566;27;43403;-76
2021/12/25 10:08:10;;;;;;;;;;;15.80;46.20;;;;;;5127097;27;43071;-74
2021/12/25 10:10:50;;;;;;;;;;;15.90;46.20;;;;;;5126444;27;42857;-75
2021/12/25 10:13:21;;;;;;;;;;;16.00;46.20;;;;;;5119499;27;43040;-74
2021/12/25 10:15:47;;;;;;;;;;;16.10;46.20;;;;;;5125979;27;42995;-72
2021/12/25 10:18:13;;;;;;;;;;;16.20;46.30;;;;;;5129253;27;42972;-75
2021/12/25 10:20:38;;;;;;;;;;;16.20;46.30;;;;;;5115466;27;42972;-72
2021/12/25 10:23:11;;;;;;;;;;;16.20;45.20;;;;;;5109005;27;43069;-73
2021/12/25 10:25:47;;;;;;;;;;;16.10;45.00;;;;;;5118674;27;42928;-74
2021/12/25 10:28:13;;;;;;;;;;;16.10;45.00;;;;;;5107171;27;43203;-74
2021/12/25 10:31:02;;;;;;;;;;;16.10;44.90;;;;;;5118247;27;43381;-75
2021/12/25 10:33:34;;;;;;;;;;;16.30;45.60;;;;;;5109132;27;43122;-76
2021/12/25 10:36:01;;;;;;;;;;;16.20;48.40;;;;;;5108628;27;42865;-75
2021/12/25 10:38:27;;;;;;;;;;;16.20;53.10;;;;;;5116739;27;43628;-74
2021/12/25 10:41:08;;;;;;;;;;;16.00;54.30;;;;;;5120250;27;42991;-77
2021/12/25 10:43:40;;;;;;;;;;;15.90;49.90;;;;;;5122174;27;42904;-77
2021/12/25 10:46:07;;;;;;;;;;;16.10;48.20;;;;;;5124345;27;42869;-79
2021/12/25 10:48:32;;;;;;;;;;;16.20;47.10;;;;;;5126052;27;44104;-75
2021/12/25 10:50:58;;;;;;;;;;;16.10;48.00;;;;;;5151352;27;19928;-73
2021/12/25 10:53:29;;;;;;;;;;;16.40;47.10;;;;;;5158577;27;19977;-74
2021/12/25 10:56:04;;;;;;;;;;;16.40;46.30;;;;;;5147584;27;20455;-74
2021/12/25 10:58:30;;;;;;;;;;;16.50;46.30;;;;;;5150718;27;19976;-74
2021/12/25 11:00:56;;;;;;;;;;;16.60;45.90;;;;;;5148795;27;19932;-75
2021/12/25 11:03:42;;;;;;;;;;;16.60;45.60;;;;;;5150690;27;19984;-74
2021/12/25 11:06:10;;;;;;;;;;;16.70;45.20;;;;;;5151961;27;20392;-76
2021/12/25 11:08:36;;;;;;;;;;;17.10;46.80;;;;;;5143140;27;19959;-74
2021/12/25 11:11:06;;;;;;;;;;;16.70;45.30;;;;;;5154309;27;19958;-74
2021/12/25 11:13:34;;;;;;;;;;;16.80;45.10;;;;;;5146293;27;19934;-73
2021/12/25 11:16:05;;;;;;;;;;;16.80;45.10;;;;;;5143841;27;19927;-74
2021/12/25 11:19:03;;;;;;;;;;;16.80;44.70;;;;;;5149616;27;19927;-74
2021/12/25 11:21:29;;;;;;;;;;;16.60;44.10;;;;;;5142667;27;20359;-72
2021/12/25 11:24:13;;;;;;;;;;;16.40;44.00;;;;;;5141856;27;19924;-74
2021/12/25 11:26:39;;;;;;;;;;;16.20;44.00;;;;;;5155857;27;19931;-75
2021/12/25 11:29:06;;;;;;;;;;;16.10;47.30;;;;;;5148100;27;19976;-74
2021/12/25 11:31:31;;;;;;;;;;;16.10;47.40;;;;;;5146915;27;19927;-75
2021/12/25 11:33:57;;;;;;;;;;;16.10;48.00;;;;;;5147325;27;20292;-81
2021/12/25 11:36:26;;;;;;;;;;;16.50;49.10;;;;;;5156570;27;19958;-79
2021/12/25 11:38:52;;;;;;;;;;;16.20;50.60;;;;;;5141473;27;19936;-83
2021/12/25 11:41:18;;;;;;;;;;;16.30;50.40;;;;;;5146512;27;19928;-83
2021/12/25 11:43:46;;;;;;;;;;;16.50;50.20;;;;;;5162276;27;19946;-82
2021/12/25 11:46:12;;;;;;;;;;;16.50;50.10;;;;;;5158969;27;19927;-82
2021/12/25 11:48:45;;;;;;;;;;;16.70;50.30;;;;;;5146816;27;20315;-83
2021/12/25 11:51:29;;;;;;;;;;;19.00;50.10;;;;;;5189374;22;19928;-84
2021/12/25 11:54:26;;;;;;;;;;;16.70;49.00;;;;;;5126950;27;19927;-83
2021/12/25 11:59:48;;;;;;;;;;;17.20;50.60;;;;;;5189003;22;19928;-82
2021/12/25 12:02:33;;;;;;;;;;;16.80;50.20;;;;;;5119958;27;19928;-83
2021/12/25 12:05:16;;;;;;;;;;;17.10;50.60;;;;;;5119829;28;20396;-84
2021/12/25 12:08:02;;;;;;;;;;;17.00;50.90;;;;;;5119982;28;20400;-84
2021/12/25 12:10:46;;;;;;;;;;;17.00;50.90;;;;;;5120925;28;19946;-84
2021/12/25 12:13:14;;;;;;;;;;;17.10;51.30;;;;;;5120605;28;20027;-84
2021/12/25 12:15:58;;;;;;;;;;;17.10;51.70;;;;;;5119464;28;19924;-84
2021/12/25 12:18:24;;;;;;;;;;;17.00;52.00;;;;;;5119892;28;19928;-84
2021/12/25 12:20:50;;;;;;;;;;;17.10;53.70;;;;;;5120066;28;19935;-83
2021/12/25 12:23:40;;;;;;;;;;;17.10;54.20;;;;;;5120270;28;19935;-84
2021/12/25 12:26:09;;;;;;;;;;;17.10;53.40;;;;;;5119922;28;20628;-84
2021/12/25 12:28:52;;;;;;;;;;;17.20;54.80;;;;;;5118312;28;20205;-85
2021/12/25 12:31:33;;;;;;;;;;;17.20;52.80;;;;;;5119648;28;19928;-84
2021/12/25 12:33:59;;;;;;;;;;;17.20;54.70;;;;;;5120084;28;20300;-85
2021/12/25 12:36:25;;;;;;;;;;;17.10;57.10;;;;;;5100834;28;19928;-83
2021/12/25 12:38:55;;;;;;;;;;;17.30;59.30;;;;;;5120142;28;19985;-83
2021/12/25 12:41:22;;;;;;;;;;;17.30;58.60;;;;;;5119288;28;19924;-84
2021/12/25 12:43:50;;;;;;;;;;;17.40;59.40;;;;;;5119331;28;19939;-84
2021/12/25 12:49:26;;;;;;;;;;;17.10;59.70;;;;;;5141864;27;20465;-84
2021/12/25 12:55:11;;;;;;;;;;;21.20;62.40;;;;;;5146873;27;20012;-84
2021/12/25 12:57:38;;;;;;;;;;;17.30;59.80;;;;;;5162199;27;20257;-79
2021/12/25 13:00:07;;;;;;;;;;;17.30;61.70;;;;;;5150378;27;20004;-77
2021/12/25 13:02:38;;;;;;;;;;;17.50;60.80;;;;;;5160080;27;19934;-78
2021/12/25 13:05:04;;;;;;;;;;;17.40;62.30;;;;;;5144283;27;20021;-74
2021/12/25 13:07:31;;;;;;;;;;;17.40;62.00;;;;;;5145440;27;19970;-74
2021/12/25 13:10:15;;;;;;;;;;;17.50;62.20;;;;;;5139647;27;19928;-76
2021/12/25 13:12:46;;;;;;;;;;;17.40;61.60;;;;;;5137515;27;20004;-75
2021/12/25 13:15:16;;;;;;;;;;;17.50;60.50;;;;;;5147130;27;19927;-75
2021/12/25 13:17:46;;;;;;;;;;;17.40;60.90;;;;;;5147832;27;20615;-75
2021/12/25 13:20:12;;;;;;;;;;;18.20;59.00;;;;;;5146515;27;19928;-73
2021/12/25 13:22:38;;;;;;;;;;;17.50;60.70;;;;;;5149266;27;20309;-73
2021/12/25 13:25:08;;;;;;;;;;;17.60;61.20;;;;;;5146764;27;19932;-74
2021/12/25 13:27:33;;;;;;;;;;;17.50;60.50;;;;;;5148852;27;20077;-76
2021/12/25 13:30:11;;;;;;;;;;;17.50;60.50;;;;;;5134480;27;19955;-76
2021/12/25 13:32:40;;;;;;;;;;;17.50;59.00;;;;;;5150316;27;19974;-73
2021/12/25 13:35:05;;;;;;;;;;;17.60;59.90;;;;;;5151089;27;19950;-76
2021/12/25 13:37:31;;;;;;;;;;;17.60;59.80;;;;;;5149854;27;19943;-74
2021/12/25 13:39:57;;;;;;;;;;;17.60;59.60;;;;;;5148840;27;19954;-73
2021/12/25 13:42:22;;;;;;;;;;;17.80;51.90;;;;;;5136854;27;19936;-74
2021/12/25 13:44:49;;;;;;;;;;;17.60;50.90;;;;;;5136123;27;19934;-76
2021/12/25 13:47:23;;;;;;;;;;;17.40;49.90;;;;;;5147421;27;19931;-75
2021/12/25 13:49:54;;;;;;;;;;;17.50;48.40;;;;;;5148134;27;19927;-73
2021/12/25 13:52:20;;;;;;;;;;;17.60;49.70;;;;;;5122449;27;19959;-74
2021/12/25 13:55:06;;;;;;;;;;;17.60;49.20;;;;;;5150087;27;20018;-75
2021/12/25 13:57:33;;;;;;;;;;;17.60;47.60;;;;;;5132569;27;19928;-74
2021/12/25 14:00:02;;;;;;;;;;;17.60;49.10;;;;;;5151281;27;19931;-74
2021/12/25 14:02:29;;;;;;;;;;;17.60;49.00;;;;;;5150216;27;20407;-75
2021/12/25 14:04:56;;;;;;;;;;;17.60;48.90;;;;;;5150839;27;19935;-74
2021/12/25 14:07:23;;;;;;;;;;;17.60;48.80;;;;;;5149917;27;19928;-76
2021/12/25 14:09:52;;;;;;;;;;;17.60;48.70;;;;;;5150679;27;19935;-75
2021/12/25 14:12:21;;;;;;;;;;;17.60;47.50;;;;;;5146268;27;19935;-73
2021/12/25 14:14:46;;;;;;;;;;;17.60;48.70;;;;;;5151839;27;19928;-73
2021/12/25 14:17:12;;;;;;;;;;;17.60;48.70;;;;;;5144465;27;20346;-77
2021/12/25 14:19:40;;;;;;;;;;;17.70;48.30;;;;;;5147567;27;20575;-75
2021/12/25 14:22:06;;;;;;;;;;;17.60;56.60;;;;;;5152306;27;19935;-74
2021/12/25 14:24:42;;;;;;;;;;;17.80;57.50;;;;;;5149870;27;19928;-73
2021/12/25 14:27:11;;;;;;;;;;;17.80;55.70;;;;;;5130031;27;19977;-75
2021/12/25 14:29:36;;;;;;;;;;;17.90;59.40;;;;;;5149073;27;19975;-77
2021/12/25 14:32:02;;;;;;;;;;;17.90;58.30;;;;;;5143444;27;19993;-75
2021/12/25 14:34:34;;;;;;;;;;;18.30;58.40;;;;;;5118724;27;19935;-75
2021/12/25 14:37:02;;;;;;;;;;;17.80;57.30;;;;;;5125578;27;19934;-78
2021/12/25 14:39:28;;;;;;;;;;;17.80;58.30;;;;;;5130929;27;19934;-75
2021/12/25 14:41:53;;;;;;;;;;;17.70;59.90;;;;;;5126761;27;19931;-79
2021/12/25 14:44:19;;;;;;;;;;;17.80;60.90;;;;;;5145042;27;19928;-80
2021/12/25 14:46:45;;;;;;;;;;;17.80;61.20;;;;;;5145697;27;19927;-80
2021/12/25 14:49:11;;;;;;;;;;;17.90;59.60;;;;;;5129827;27;19963;-81
2021/12/25 14:51:42;;;;;;;;;;;17.80;51.00;;;;;;5147023;27;20023;-75
2021/12/25 14:54:08;;;;;;;;;;;17.90;50.00;;;;;;5147319;27;19966;-75
2021/12/25 14:56:35;;;;;;;;;;;17.90;49.60;;;;;;5142377;27;19987;-75
2021/12/25 14:59:05;;;;;;;;;;;17.90;49.60;;;;;;5139559;27;20379;-75
2021/12/25 15:01:35;;;;;;;;;;;17.80;48.10;;;;;;5142920;27;19928;-76
2021/12/25 15:04:18;;;;;;;;;;;17.90;49.70;;;;;;5142360;27;19927;-76
2021/12/25 15:06:46;;;;;;;;;;;17.90;48.00;;;;;;5141431;27;19927;-75
2021/12/25 15:09:14;;;;;;;;;;;17.70;50.40;;;;;;5142654;27;20422;-74
2021/12/25 15:11:44;;;;;;;;;;;17.90;49.30;;;;;;5139289;27;20060;-74
2021/12/25 15:14:12;;;;;;;;;;;18.00;49.30;;;;;;5141808;27;19927;-74
2021/12/25 15:16:44;;;;;;;;;;;18.00;49.00;;;;;;5120566;27;19982;-73
2021/12/25 15:19:20;;;;;;;;;;;17.90;47.70;;;;;;5144541;27;19977;-74
2021/12/25 15:21:46;;;;;;;;;;;17.90;49.20;;;;;;5125717;27;19927;-73
2021/12/25 15:24:16;;;;;;;;;;;18.00;49.10;;;;;;5144163;27;19927;-73
2021/12/25 15:27:01;;;;;;;;;;;17.80;49.60;;;;;;5137607;27;20038;-73
2021/12/25 15:29:42;;;;;;;;;;;17.90;47.50;;;;;;5124418;27;20391;-72
2021/12/25 15:32:09;;;;;;;;;;;18.00;47.60;;;;;;5143700;27;19927;-73
2021/12/25 15:34:35;;;;;;;;;;;17.90;49.10;;;;;;5141161;27;19934;-72
2021/12/25 15:37:15;;;;;;;;;;;18.00;49.20;;;;;;5140425;27;19927;-72
2021/12/25 15:39:44;;;;;;;;;;;18.00;49.30;;;;;;5141484;27;19927;-73
2021/12/25 15:42:12;;;;;;;;;;;18.00;49.00;;;;;;5142630;27;19978;-75
2021/12/25 15:44:37;;;;;;;;;;;18.00;51.80;;;;;;5138126;27;20073;-73
2021/12/25 15:47:03;;;;;;;;;;;18.00;49.10;;;;;;5124319;27;19946;-73
2021/12/25 15:49:29;;;;;;;;;;;18.00;49.40;;;;;;5139327;27;20318;-74
2021/12/25 15:51:58;;;;;;;;;;;17.90;48.70;;;;;;5142511;27;19931;-75
2021/12/25 15:54:25;;;;;;;;;;;17.90;49.60;;;;;;5142441;27;19932;-73
2021/12/25 15:56:56;;;;;;;;;;;18.10;50.30;;;;;;5142252;27;19973;-73
2021/12/25 15:59:22;;;;;;;;;;;18.00;49.20;;;;;;5144980;27;19928;-74